Etusivu
METAR-TAF:

METAR-TAF

Lentoasemat :

Yamagata, Japani

Leveyspiiri: 38-25N, Pituuspiiri: 140-22E, korkeus merenpinnasta: 105 m

Tämänhetkinen sää

Tämä raportti tehtiin 3 tuntia ja 24 minuuttia sitten, kello 10.00 UTC
Tuuli 2 kn etelästä/lounaasta
Lämpötila 11°C
Kosteus 71%
Ilmanpaine 1013 hPa
Näkyvyys 10 km tai enemmän
Muutamia pilviä 3000 ft:n korkeudessa
Hajonneita pilviä

METAR: RJSC 131000Z 20002KT 9999 FEW030 BKN/// 11/06 Q1013

Aika: 22:24 (13:24 UTC)


TAF: puuttuu

Säähavainnot ja -ennusteet yli 4000 lentoasemalta (METAR- ja TAF-raportit).

Käytössä olevat sääasemat on merkitty karttaan keltaisilla ja punaisilla pisteillä.

Aseta hiiri pisteen päälle nähdäksesi sääaseman nimen.

Klikkaa sitten nähdäksesi säähavainnot ja -ennusteet.

Kartan vaihtaminen: klikkaa mustalla rastilla varustettuja vihreitä pisteitä, niin voit zoomata sisään; viivalla varustettua vihreää pistettä, niin voit zoomata ulos tai vihreitä nuolia, niin pääset viereisille kartoille.


METAR-TAF: